Terminal Aerodrome Forecast
Issued by NWS

Home | Current Version | Previous Version | Text Only | Print | Product List | Glossary On
Versions: 1 2 3 4 5 6 7 8 9 10 11 12 13 14 15 16 17 18 19
818
FTUS43 KBIS 240523
TAFDIK
TAF
KDIK 240523Z 2406/2506 28006KT P6SM SKC WS020/33035KT
     FM240900 30011KT P6SM SKC
     FM242300 27013KT P6SM FEW200 FEW250 WS020/29030KT
     FM250200 28013G21KT P6SM FEW250 WS020/30040KT=

USA.gov is the U.S. government's official web portal to all federal, state and local government web resources and services.